Jasno ale spara
Polojasno
Väčšinou oblačno
Väčšinou oblačno
Zatiahnuté
Zatiahnuté
Zatiahnuté
Zatiahnuté
Zatiahnuté
(°C)
17°
17°
17°
17°
17°
17°
17°
17°
17°
17°
17°
17°
17°
17°
17°
17°
17°
17°
(°C)
17°
17°
17°
17°
17°
17°
17°
18°
18°
SZ
SZ
SSZ
SSZ
SSZ
SSZ
SSZ
SSZ
SSZ
(km/h)
6-12
5-11
5-11
5-9
5-9
4-9
4-9
4-9
4-9
(mm)
0
0
0
0
0
0
0
0
0
(%)
0
0
0
0
0
0
0
0
0

Výška Slnka nad obzorom

/ -27.1°
sun-icon
UV 10
05:39
20:00
Dorastajúci polmesiac (149°)
18:11
03:26

Správy METAR pre lokalitu San Diego (KSAN)

Čas Podmienky Teplota/
Rosný bod
Vietor Viditeľnosť Počasie Oblaky Tlak Zmeniť Nespracované
MVFR 17.2°C / 13.9°C 310º 4kt >10km - Scattered Clouds 1300ft
Broken Clouds 1700ft
1011 - KSAN 200451Z 31004KT 10SM SCT013 BKN017 17/14 A2987 RMK AO2 SLP114 T01720139 $
MVFR 17.8°C / 13.9°C 300º 4kt >10km - Broken Clouds 1700ft - KSAN 200424Z 30004KT 10SM BKN017 18/14 A2987 RMK AO2 T01780139 $
VFR 17.2°C / 13.9°C 310º 4kt >10km - Scattered Clouds 2000ft 1010 - KSAN 200351Z 31004KT 10SM SCT020 17/14 A2985 RMK AO2 SLP109 T01720139 $
VFR 17.8°C / 13.9°C 290º 7kt >10km - Few Clouds 2000ft 1010 - KSAN 200251Z 29007KT 10SM FEW020 18/14 A2985 RMK AO2 SLP107 T01780139 55002 $
VFR 18.9°C / 13.9°C 300º 7kt >10km - Few Clouds 2000ft 1010 - KSAN 200151Z 30007KT 10SM FEW020 19/14 A2984 RMK AO2 SLP105 T01890139 $
VFR 20°C / 13.9°C 300º 6kt >10km - Few Clouds 2000ft 1010 - KSAN 200051Z 30006KT 10SM FEW020 20/14 A2985 RMK AO2 SLP106 T02000139 $
VFR 21.1°C / 13.9°C 300º 6kt >10km - Scattered Clouds 2000ft 1010 - KSAN 192351Z 30006KT 9SM SCT020 21/14 A2985 RMK AO2 SLP109 T02110139 10211 20194 58010 $
VFR 20.6°C / 14.4°C 220º 9kt >10km - Scattered Clouds 2600ft 1011 - KSAN 192251Z 22009KT 9SM SCT026 21/14 A2987 RMK AO2 SLP114 T02060144 $
VFR 20.6°C / 14.4°C 210º 9kt Gust 20kt >10km - Few Clouds 2600ft 1011 - KSAN 192151Z 21009G20KT 10SM FEW026 21/14 A2987 RMK AO2 SLP116 T02060144 $
VFR 21.1°C / 13.9°C 210º 9kt >10km - Few Clouds 2600ft 1011 - KSAN 192051Z 21009KT 10SM FEW026 21/14 A2988 RMK AO2 SLP119 T02110139 58003 $
VFR 20.6°C / 13.9°C 200º 8kt Gust 15kt >10km - Scattered Clouds 2100ft 1012 - KSAN 191951Z 20008G15KT 10SM SCT021 21/14 A2989 RMK AO2 SLP122 T02060139 $
VFR 20°C / 13.9°C 210º 8kt >10km - Scattered Clouds 2600ft 1012 - KSAN 191851Z 21008KT 9SM SCT026 20/14 A2990 RMK AO2 SLP124 T02000139 $
VFR 19.4°C / 13.9°C 220º 8kt >10km - Scattered Clouds 2200ft 1012 - KSAN 191751Z 22008KT 9SM SCT022 19/14 A2989 RMK AO2 SLP122 T01940139 10200 20172 53009 $
VFR 18.9°C / 13.9°C 210º 6kt >10km - Scattered Clouds 1800ft - KSAN 191657Z 21006KT 8SM SCT018 19/14 A2988 RMK AO2 T01890139
MVFR 18.9°C / 13.9°C 210º 7kt >10km - Broken Clouds 1800ft 1011 - KSAN 191651Z 21007KT 8SM BKN018 19/14 A2988 RMK AO2 SLP117 BKN V SCT T01890139
MVFR 17.8°C / 13.3°C 220º 7kt >10km - Overcast 1700ft 1011 - KSAN 191551Z 22007KT 8SM OVC017 18/13 A2988 RMK AO2 SLP118 T01780133
MVFR 17.2°C / 13.3°C 3kt >10km - Overcast 1500ft - KSAN 191511Z VRB03KT 8SM OVC015 17/13 A2987 RMK AO2 T01720133
MVFR 17.2°C / 13.3°C 210º 4kt >10km - Overcast 1400ft 1011 - KSAN 191451Z 21004KT 8SM OVC014 17/13 A2987 RMK AO2 SLP113 T01720133 52012
MVFR 17.2°C / 13.3°C 150º 6kt >10km - Overcast 1400ft - KSAN 191431Z 15006KT 8SM OVC014 17/13 A2986 RMK AO2 T01720133
MVFR 17.2°C / 13.3°C 4kt >10km - Overcast 1500ft - KSAN 191359Z VRB04KT 9SM OVC015 17/13 A2985 RMK AO2 T01720133
MVFR 17.2°C / 13.3°C 170º 6kt >10km - Overcast 1400ft 1010 - KSAN 191351Z 17006KT 9SM OVC014 17/13 A2985 RMK AO2 SLP109 T01720133
MVFR 17.2°C / 13.3°C 130º 4kt >10km - Overcast 1400ft - KSAN 191259Z 13004KT 10SM OVC014 17/13 A2985 RMK AO2 T01720133
MVFR 17.2°C / 13.3°C 210º 4kt >10km - Overcast 1500ft 1010 - KSAN 191151Z 21004KT 10SM OVC015 17/13 A2983 RMK AO2 SLP101 T01720133 10178 20172 53003
MVFR 17.2°C / 13.3°C 170º 7kt >10km - Overcast 1500ft - KSAN 191102Z 17007KT 10SM OVC015 17/13 A2983 RMK AO2 T01720133

MVFR

17.2°C / 13.9°C

[Viac]
Vietor 310º 4kt
Viditeľnosť >10km
Počasie -
Oblaky Scattered Clouds 1300ft
Broken Clouds 1700ft
Tlak 1011
Zmeniť -
Nespracované KSAN 200451Z 31004KT 10SM SCT013 BKN017 17/14 A2987 RMK AO2 SLP114 T01720139 $

MVFR

17.8°C / 13.9°C

[Viac]
Vietor 300º 4kt
Viditeľnosť >10km
Počasie -
Oblaky Broken Clouds 1700ft
Tlak
Zmeniť -
Nespracované KSAN 200424Z 30004KT 10SM BKN017 18/14 A2987 RMK AO2 T01780139 $

VFR

17.2°C / 13.9°C

[Viac]
Vietor 310º 4kt
Viditeľnosť >10km
Počasie -
Oblaky Scattered Clouds 2000ft
Tlak 1010
Zmeniť -
Nespracované KSAN 200351Z 31004KT 10SM SCT020 17/14 A2985 RMK AO2 SLP109 T01720139 $

VFR

17.8°C / 13.9°C

[Viac]
Vietor 290º 7kt
Viditeľnosť >10km
Počasie -
Oblaky Few Clouds 2000ft
Tlak 1010
Zmeniť -
Nespracované KSAN 200251Z 29007KT 10SM FEW020 18/14 A2985 RMK AO2 SLP107 T01780139 55002 $

VFR

18.9°C / 13.9°C

[Viac]
Vietor 300º 7kt
Viditeľnosť >10km
Počasie -
Oblaky Few Clouds 2000ft
Tlak 1010
Zmeniť -
Nespracované KSAN 200151Z 30007KT 10SM FEW020 19/14 A2984 RMK AO2 SLP105 T01890139 $

VFR

20°C / 13.9°C

[Viac]
Vietor 300º 6kt
Viditeľnosť >10km
Počasie -
Oblaky Few Clouds 2000ft
Tlak 1010
Zmeniť -
Nespracované KSAN 200051Z 30006KT 10SM FEW020 20/14 A2985 RMK AO2 SLP106 T02000139 $

VFR

21.1°C / 13.9°C

[Viac]
Vietor 300º 6kt
Viditeľnosť >10km
Počasie -
Oblaky Scattered Clouds 2000ft
Tlak 1010
Zmeniť -
Nespracované KSAN 192351Z 30006KT 9SM SCT020 21/14 A2985 RMK AO2 SLP109 T02110139 10211 20194 58010 $

VFR

20.6°C / 14.4°C

[Viac]
Vietor 220º 9kt
Viditeľnosť >10km
Počasie -
Oblaky Scattered Clouds 2600ft
Tlak 1011
Zmeniť -
Nespracované KSAN 192251Z 22009KT 9SM SCT026 21/14 A2987 RMK AO2 SLP114 T02060144 $

VFR

20.6°C / 14.4°C

[Viac]
Vietor 210º 9kt Gust 20kt
Viditeľnosť >10km
Počasie -
Oblaky Few Clouds 2600ft
Tlak 1011
Zmeniť -
Nespracované KSAN 192151Z 21009G20KT 10SM FEW026 21/14 A2987 RMK AO2 SLP116 T02060144 $

VFR

21.1°C / 13.9°C

[Viac]
Vietor 210º 9kt
Viditeľnosť >10km
Počasie -
Oblaky Few Clouds 2600ft
Tlak 1011
Zmeniť -
Nespracované KSAN 192051Z 21009KT 10SM FEW026 21/14 A2988 RMK AO2 SLP119 T02110139 58003 $

VFR

20.6°C / 13.9°C

[Viac]
Vietor 200º 8kt Gust 15kt
Viditeľnosť >10km
Počasie -
Oblaky Scattered Clouds 2100ft
Tlak 1012
Zmeniť -
Nespracované KSAN 191951Z 20008G15KT 10SM SCT021 21/14 A2989 RMK AO2 SLP122 T02060139 $

VFR

20°C / 13.9°C

[Viac]
Vietor 210º 8kt
Viditeľnosť >10km
Počasie -
Oblaky Scattered Clouds 2600ft
Tlak 1012
Zmeniť -
Nespracované KSAN 191851Z 21008KT 9SM SCT026 20/14 A2990 RMK AO2 SLP124 T02000139 $

VFR

19.4°C / 13.9°C

[Viac]
Vietor 220º 8kt
Viditeľnosť >10km
Počasie -
Oblaky Scattered Clouds 2200ft
Tlak 1012
Zmeniť -
Nespracované KSAN 191751Z 22008KT 9SM SCT022 19/14 A2989 RMK AO2 SLP122 T01940139 10200 20172 53009 $

VFR

18.9°C / 13.9°C

[Viac]
Vietor 210º 6kt
Viditeľnosť >10km
Počasie -
Oblaky Scattered Clouds 1800ft
Tlak
Zmeniť -
Nespracované KSAN 191657Z 21006KT 8SM SCT018 19/14 A2988 RMK AO2 T01890139

MVFR

18.9°C / 13.9°C

[Viac]
Vietor 210º 7kt
Viditeľnosť >10km
Počasie -
Oblaky Broken Clouds 1800ft
Tlak 1011
Zmeniť -
Nespracované KSAN 191651Z 21007KT 8SM BKN018 19/14 A2988 RMK AO2 SLP117 BKN V SCT T01890139

MVFR

17.8°C / 13.3°C

[Viac]
Vietor 220º 7kt
Viditeľnosť >10km
Počasie -
Oblaky Overcast 1700ft
Tlak 1011
Zmeniť -
Nespracované KSAN 191551Z 22007KT 8SM OVC017 18/13 A2988 RMK AO2 SLP118 T01780133

MVFR

17.2°C / 13.3°C

[Viac]
Vietor 3kt
Viditeľnosť >10km
Počasie -
Oblaky Overcast 1500ft
Tlak
Zmeniť -
Nespracované KSAN 191511Z VRB03KT 8SM OVC015 17/13 A2987 RMK AO2 T01720133

MVFR

17.2°C / 13.3°C

[Viac]
Vietor 210º 4kt
Viditeľnosť >10km
Počasie -
Oblaky Overcast 1400ft
Tlak 1011
Zmeniť -
Nespracované KSAN 191451Z 21004KT 8SM OVC014 17/13 A2987 RMK AO2 SLP113 T01720133 52012

MVFR

17.2°C / 13.3°C

[Viac]
Vietor 150º 6kt
Viditeľnosť >10km
Počasie -
Oblaky Overcast 1400ft
Tlak
Zmeniť -
Nespracované KSAN 191431Z 15006KT 8SM OVC014 17/13 A2986 RMK AO2 T01720133

MVFR

17.2°C / 13.3°C

[Viac]
Vietor 4kt
Viditeľnosť >10km
Počasie -
Oblaky Overcast 1500ft
Tlak
Zmeniť -
Nespracované KSAN 191359Z VRB04KT 9SM OVC015 17/13 A2985 RMK AO2 T01720133

MVFR

17.2°C / 13.3°C

[Viac]
Vietor 170º 6kt
Viditeľnosť >10km
Počasie -
Oblaky Overcast 1400ft
Tlak 1010
Zmeniť -
Nespracované KSAN 191351Z 17006KT 9SM OVC014 17/13 A2985 RMK AO2 SLP109 T01720133

MVFR

17.2°C / 13.3°C

[Viac]
Vietor 130º 4kt
Viditeľnosť >10km
Počasie -
Oblaky Overcast 1400ft
Tlak
Zmeniť -
Nespracované KSAN 191259Z 13004KT 10SM OVC014 17/13 A2985 RMK AO2 T01720133

MVFR

17.2°C / 13.3°C

[Viac]
Vietor 210º 4kt
Viditeľnosť >10km
Počasie -
Oblaky Overcast 1500ft
Tlak 1010
Zmeniť -
Nespracované KSAN 191151Z 21004KT 10SM OVC015 17/13 A2983 RMK AO2 SLP101 T01720133 10178 20172 53003

MVFR

17.2°C / 13.3°C

[Viac]
Vietor 170º 7kt
Viditeľnosť >10km
Počasie -
Oblaky Overcast 1500ft
Tlak
Zmeniť -
Nespracované KSAN 191102Z 17007KT 10SM OVC015 17/13 A2983 RMK AO2 T01720133

Správy TAF pre lokalitu San Diego (KSAN)

From till


From till Wind 4kt. Visibility 9700m. Overcast 1300ft.
From till Wind 270º 7kt. Visibility 9700m. Scattered Clouds 1200ft.
From till Wind 290º 9kt. Visibility 9700m. Sky Clear.
From till Wind 4kt. Visibility 9700m. Scattered Clouds 1000ft.
From till Wind 4kt. Visibility 9700m. Overcast 1000ft.

Nespracované: KSAN 200520Z 2006/2112 VRB04KT P6SM OVC013 FM201800 27007KT P6SM SCT012 FM202100 29009KT P6SM SKC FM210300 VRB04KT P6SM SCT010 FM210600 VRB04KT P6SM OVC010

rainNOW: Predpoveď dažďa pre San Diego a okolie (v okruhu 25 km)

0.0 mm
0.0 mm
0.0 mm
0.0 mm
0.0 mm
0.0 mm
0.0 mm
0.0 mm
0.0 mm
0.0 mm
0.0 mm
0.0 mm

Radar a krátkodobá predpoveď zrážok pre San Diego

Mrholenie
Slabý
Mierne
Ťažké
Veľmi ťažké
Krúpy

Značka polohy je umiestnená na San Diego. Táto animácia zobrazuje zrážkový radar pre vybraný časový rozsah, ako aj 1h predpoveď. Oranžové krížiky označujú blesky. Údaje poskytol nowcast.de (k dispozícii v USA, Európe a Austrálii). Mrholenie alebo slabé sneženie môže byť pre radar neviditeľné. Intenzita zrážok je farebne označená od tyrkysovej po červenú.

Aktuálne satelitné snímky pre lokalitu San Diego, Spojené štáty americké

Značka polohy je umiestnená naSan Diego. [Viac]

Satelitné snímky zhotovované v reálnom čase využívajú viditeľné svetlo počas dňa a infračervené žiarenie počas noci. Vzhľadom na to, že infračervené žiarenie zisťuje teplotné rozdiely, snímka v noci nie je tmavá. Nízke oblaky a hmlu je, žiaľ, ťažké odlíšiť od prízemných teplôt, preto môžu byť počas noci takmer neviditeľné. Meteosat satelitné snímky pre Európu sú aktualizované v reálnom čase každých 5 minút. Snímky z GOES-16/GOES-17 (Severná a Južná Amerika) a Himawari (Ázia) sú aktualizované každých 10 minút.

Zrážky sa odhadujú z radarov a satelitov. Odhady zrážok zo satelitov sú v noci menej presné ako počas dňa.

© 2024 meteoblue, NOAA Satellites GOES-16 and EUMETSAT. Údaje o bleskoch poskytuje nowcast.

Späť nahor
×
Dobrý deň,
zdá sa, že používate blokovač reklám.

Inzercia je nevyhnutná na udržiavanie našej bezplatnej webovej stránky s jedinečnými detailmi a presnosťou.

Prosím, zapíšte si www.meteoblue.com na bielu listinu blokovača reklám alebo zvážte kúpu niektorého z našich produktov:

Už máte predplatné?
Potom sa prosím prihláste.